AirNav   Pilot Hours Calculator
 
 955 users online  

6IA2 Jennie Edmundson Hospital Heliport
Council Bluffs, Iowa, USA

GOING TO COUNCIL BLUFFS?


FAA INFORMATION EFFECTIVE 02 JANUARY 2020

Location

FAA Identifier: 6IA2
Lat/Long: 41-16-10.0100N 095-50-04.1700W
41-16.166833N 095-50.069500W
41.2694472,-95.8344917
(estimated)
Elevation: 1000 ft. / 305 m (estimated)
Variation: 05E (1995)
Time zone: UTC -6 (UTC -5 during Daylight Saving Time)
Zip code: 51503

Heliport Operations

Heliport use: Private use, MEDICAL USE.
Activation date: 05/1996
Control tower: no
ARTCC: MINNEAPOLIS CENTER
FSS: FORT DODGE FLIGHT SERVICE STATION
Attendance: UNATNDD
Segmented circle: no
Lights: FOR PERIMETER LGTS CALL 712-396-6000.

Heliport Communications

WX ASOS at OMA (3 nm NW): PHONE 402-271-7515
WX AWOS-3 at CBF (3 nm E): 126.575 (712-323-1542)
WX AWOS-3 at MLE (13 nm W): 118.25 (402-895-6778)
WX AWOS-3 at BTA (15 nm NW): 120.225 (402-426-0448)
WX AWOS-3 at PMV (20 nm S): 118.975 (402-298-7524)

Nearby radio navigation aids

VOR radial/distance  VOR name  Freq  Var
OVRr316/7.6OMAHA VORTAC116.3008E

 
NDB name  Hdg/Dist  Freq  Var  ID
PLATTSMOUTH005/19.932905EPMV .--. -- ...-
WAHOO081/34.540006EAHQ .- .... --.-
SHENANDOAH323/36.641105ESDA ... -.. .-
NEBRASKA CITY357/39.934705EAFK .- ..-. -.-

Heliport Services

Runway Information

Helipad H1

Dimensions: 70 x 65 ft. / 21 x 20 m
Surface: asphalt
Runway edge lights: PERI
Latitude: 41-16.166833N
Longitude: 095-50.069500W
Elevation: 1000.0 ft.
Traffic pattern: leftleft

Heliport Ownership and Management from official FAA records

Ownership: Privately-owned
Owner: JENNIE EDMUNDSON HOSPITAL
933 EAST PIERCE STREET
COUNCIL BLUFFS, IA 51503
Phone 712-396-6000
Manager: CINDY RUNYAN
933 EAST PIERCE STREET
COUNCIL BLUFFS, IA 51503
Phone (712) 396-6707

Heliport Operational Statistics

Aircraft based on the field: 1
Ultralights: 1
    

Additional Remarks

OWNER DESIRES HELIPORT NOT BE CHARTED.
FOR CD CTC OMAHA APCH AT 402-682-4395.

Instrument Procedures

There are no published instrument procedures at 6IA2.

Some nearby airports with instrument procedures:

KOMA - Eppley Airfield (3 nm NW)
KCBF - Council Bluffs Municipal Airport (3 nm E)
KOFF - Offutt Air Force Base (10 nm S)
KMLE - Millard Airport (13 nm W)
KBTA - Blair Municipal Airport (15 nm NW)
KPMV - Plattsmouth Municipal Airport (20 nm S)
 
Loc | Ops | Rwys | IFR | FBO | Links
Com | Nav | Svcs | Stats | Notes
Area around 6IA2 (Jennie Edmundson Hospital Heliport)
 
Road maps at: MapQuest Bing Google
 
Aerial photo
No photo
 
Sectional chart

 
Airport distance calculator
Flying to Jennie Edmundson Hospital Heliport? Find the distance to fly.

From to 6IA2

Sunrise and sunset
Times for 19-Jan-2020
 Local
(UTC-6)
 Zulu
(UTC)
Morning civil twilight07:1613:16
Sunrise07:4613:46
Sunset17:2223:22
Evening civil twilight17:5323:53

Current date and time
Zulu (UTC)  19-Jan-2020 13:44:08
Local (UTC-6)  19-Jan-2020 07:44:08
 
METAR
KCBF 
3nm E 
191335Z AUTO 32019KT 10SM CLR M18/M24 A3051 RMK AO2
KOMA 
4nm NW 
191252Z 32013KT 10SM CLR M17/M23 A3056 RMK AO2 PK WND 32026/1154 SLP372 T11721228 $
KOFF 
10nm S 
191256Z 31016G20KT 10SM CLR M17/M23 A3057 RMK AO2A SLP391 RVRNO $
KMLE 
13nm W 
191335Z AUTO 32011G15KT 10SM CLR M16/M23 A3058 RMK AO2 T11611226
KBTA 
15nm NW 
191335Z AUTO 31008G14KT 10SM CLR M18/M23 A3053 RMK AO2 T11821226
KPMV 
20nm S 
191335Z AUTO 33013G19KT 10SM CLR M17/M22 A3055 RMK AO2 T11721221
TAF
KOMA 
4nm NW 
191121Z 1912/2012 33012KT P6SM SKC FM192300 VRB03KT P6SM FEW150 FM201000 VRB03KT P6SM BKN100
KOFF 
10nm S 
191000Z 1910/2016 31012G18KT 9999 FEW060 QNH3052INS BECMG 1923/1924 31008KT 9999 SCT050 QNH3052INS TXM14/1920Z TNM23/2010Z
NOTAMs
Click for the latest NOTAMs
NOTAMs are issued by the DoD/FAA and will open in a separate window not controlled by AirNav.

 

 
 

Would you like to see your business listed on this page?

 If your business provides an interesting product or service to pilots, flight crews, aircraft, or users of the Jennie Edmundson Hospital Heliport, you should consider listing it here.  To start the listing process, click on the button below
 
Add a business
 

Other Pages about Jennie Edmundson Hospital Heliport

Update a link
 
Copyright © AirNav, LLC. All rights reserved. Privacy Policy  Contact